Time;durP1;ratioP1;P1;durP2;ratioP2;P2;SDS_P1;SDS_P2;PMS_P1;PMS_P2;Temp;Humidity;BMP_temperature;BMP_pressure;BME280_temperature;BME280_humidity;BME280_pressure;Samples;Min_cycle;Max_cycle;Signal;HPM_P1;HPM_P2
2022/01/08 00:01:28;;;;;;;83.90;10.05;;;;;;;0.07;100.00;90798.03;5109552;28;20028;-62
2022/01/08 00:03:54;;;;;;;35.17;11.05;;;;;;;0.13;100.00;90796.22;5109604;28;20485;-62
2022/01/08 00:06:20;;;;;;;83.43;11.95;;;;;;;0.03;100.00;90796.16;5110888;28;20128;-62
2022/01/08 00:08:48;;;;;;;89.80;14.20;;;;;;;0.09;100.00;90797.78;5110904;28;20028;-63
2022/01/08 00:11:18;;;;;;;43.75;12.57;;;;;;;0.14;100.00;90803.03;5110918;28;20035;-62
2022/01/08 00:13:44;;;;;;;91.65;15.23;;;;;;;0.22;100.00;90797.38;5110933;28;20028;-63
2022/01/08 00:16:10;;;;;;;103.13;15.23;;;;;;;0.24;100.00;90793.47;5110797;28;20024;-63
2022/01/08 00:18:35;;;;;;;135.15;15.20;;;;;;;0.27;100.00;90787.72;5112056;28;20037;-62
2022/01/08 00:21:01;;;;;;;75.78;9.43;;;;;;;0.22;100.00;90779.06;5114123;28;20428;-62
2022/01/08 00:23:26;;;;;;;127.75;14.43;;;;;;;0.09;100.00;90787.31;5114491;28;20489;-63
2022/01/08 00:25:52;;;;;;;121.55;13.32;;;;;;;0.03;100.00;90796.94;5114409;28;20039;-62
2022/01/08 00:28:17;;;;;;;274.20;18.88;;;;;;;0.18;100.00;90788.44;5114412;28;20479;-62
2022/01/08 00:30:44;;;;;;;176.07;16.48;;;;;;;0.15;100.00;90787.09;5114304;28;20024;-63
2022/01/08 00:33:10;;;;;;;65.20;13.65;;;;;;;0.27;100.00;90782.50;5114307;28;20106;-63
2022/01/08 00:35:36;;;;;;;114.68;12.35;;;;;;;0.16;100.00;90782.66;5114299;28;20066;-62
2022/01/08 00:38:02;;;;;;;129.20;16.25;;;;;;;0.10;100.00;90787.06;5114276;28;20065;-62
2022/01/08 00:40:28;;;;;;;126.05;14.75;;;;;;;0.13;100.00;90785.78;5112794;28;20066;-63
2022/01/08 00:42:53;;;;;;;122.75;14.98;;;;;;;0.22;100.00;90790.31;5114077;28;20537;-63
2022/01/08 00:45:19;;;;;;;240.80;17.20;;;;;;;0.23;100.00;90784.03;5114066;28;20497;-63
2022/01/08 00:47:45;;;;;;;100.03;13.32;;;;;;;0.16;100.00;90775.63;5114033;28;20059;-63
2022/01/08 00:50:12;;;;;;;345.20;25.17;;;;;;;0.11;100.00;90780.00;5113856;28;20027;-63
2022/01/08 00:52:39;;;;;;;197.63;18.83;;;;;;;0.21;100.00;90777.47;5113942;28;20519;-63
2022/01/08 00:55:06;;;;;;;156.18;17.77;;;;;;;0.32;100.00;90778.31;5113931;28;20405;-62
2022/01/08 00:57:31;;;;;;;212.27;17.70;;;;;;;0.34;100.00;90776.28;5113936;28;20116;-62
2022/01/08 00:59:57;;;;;;;73.18;11.38;;;;;;;0.18;100.00;90784.00;5113736;28;20081;-63
2022/01/08 01:02:22;;;;;;;110.30;15.07;;;;;;;0.24;100.00;90769.91;5113693;28;20055;-63
2022/01/08 01:04:48;;;;;;;137.82;15.00;;;;;;;0.22;100.00;90769.38;5113772;28;20028;-62
2022/01/08 01:07:14;;;;;;;58.65;9.18;;;;;;;0.15;100.00;90768.78;5113697;28;20027;-63
2022/01/08 01:09:39;;;;;;;63.80;11.23;;;;;;;0.03;100.00;90768.19;5113541;28;20504;-62
2022/01/08 01:12:05;;;;;;;57.30;12.60;;;;;;;0.08;100.00;90756.97;5113519;28;20027;-62
2022/01/08 01:14:31;;;;;;;128.73;15.80;;;;;;;0.02;100.00;90758.75;5113501;28;20495;-62
2022/01/08 01:16:57;;;;;;;64.95;12.45;;;;;;;0.06;100.00;90753.81;5113430;28;20030;-63
2022/01/08 01:19:22;;;;;;;52.80;11.80;;;;;;;0.02;100.00;90748.31;5113381;28;20024;-63
2022/01/08 01:21:49;;;;;;;105.70;15.23;;;;;;;0.08;100.00;90749.13;5113060;28;20409;-62
2022/01/08 01:24:20;;;;;;;113.13;15.85;;;;;;;0.21;100.00;90752.13;5113282;28;20031;-63
2022/01/08 01:27:10;;;;;;;63.38;11.60;;;;;;;0.16;100.00;90756.50;5113441;28;20042;-63
2022/01/08 01:29:45;;;;;;;91.97;12.57;;;;;;;0.08;100.00;90742.06;5113049;28;20059;-63
2022/01/08 01:48:34;;;;;;;91.05;12.38;;;;;;;-0.13;100.00;90714.19;5112789;28;20485;-62
2022/01/08 01:51:00;;;;;;;70.00;11.90;;;;;;;0.16;100.00;90738.19;5112773;28;20110;-62
2022/01/08 01:53:25;;;;;;;235.25;22.85;;;;;;;0.15;100.00;90745.25;5112728;28;20023;-62
2022/01/08 01:55:51;;;;;;;98.30;13.23;;;;;;;0.11;100.00;90740.78;5112702;28;20111;-62
2022/01/08 01:58:17;;;;;;;84.97;12.43;;;;;;;0.11;100.00;90741.56;5112704;28;20059;-63
2022/01/08 02:00:44;;;;;;;100.40;11.77;;;;;;;0.02;100.00;90739.69;5112464;28;20059;-62
2022/01/08 02:03:10;;;;;;;90.97;13.77;;;;;;;0.04;100.00;90735.75;5112569;28;20050;-63
2022/01/08 02:05:35;;;;;;;70.60;12.38;;;;;;;0.03;100.00;90730.78;5112843;28;20453;-63
2022/01/08 02:08:01;;;;;;;93.00;14.60;;;;;;;0.04;100.00;90727.91;5112548;28;20489;-63
2022/01/08 02:10:26;;;;;;;77.03;12.85;;;;;;;0.03;100.00;90733.41;5112352;28;20110;-63
2022/01/08 02:12:52;;;;;;;109.97;14.05;;;;;;;0.05;100.00;90724.28;5112460;28;20062;-62
2022/01/08 02:15:17;;;;;;;70.63;13.40;;;;;;;0.20;100.00;90729.59;5112364;28;20031;-62
2022/01/08 02:17:43;;;;;;;70.25;13.80;;;;;;;0.30;100.00;90723.63;5112299;28;20016;-62
2022/01/08 02:20:10;;;;;;;49.35;13.98;;;;;;;0.30;100.00;90718.41;5112148;28;20110;-62
2022/01/08 02:22:36;;;;;;;112.50;16.08;;;;;;;0.28;100.00;90705.59;5111935;28;20047;-62
2022/01/08 02:25:02;;;;;;;75.10;14.32;;;;;;;0.29;100.00;90701.94;5112192;28;20378;-62
2022/01/08 02:27:28;;;;;;;134.30;19.48;;;;;;;0.29;100.00;90691.47;5112184;28;20027;-62
2022/01/08 02:29:53;;;;;;;77.05;12.98;;;;;;;0.26;100.00;90694.59;5112014;28;20417;-62
2022/01/08 02:32:29;;;;;;;67.40;12.18;;;;;;;0.20;100.00;90698.22;5111979;28;20164;-62
2022/01/08 02:34:55;;;;;;;86.18;14.35;;;;;;;0.30;100.00;90698.25;5112049;28;20020;-62
2022/01/08 02:37:29;;;;;;;68.95;13.23;;;;;;;0.36;100.00;90698.31;5111961;28;20036;-62
2022/01/08 02:39:55;;;;;;;96.60;12.85;;;;;;;0.14;100.00;90675.66;5111825;28;20027;-62
2022/01/08 02:42:22;;;;;;;71.55;11.63;;;;;;;0.21;100.00;90684.09;5111394;28;20394;-62
2022/01/08 02:44:49;;;;;;;164.80;16.90;;;;;;;0.11;100.00;90680.63;5111813;28;20016;-62
2022/01/08 02:47:16;;;;;;;132.80;14.60;;;;;;;0.21;100.00;90681.50;5111803;28;20031;-62
2022/01/08 02:49:42;;;;;;;90.50;13.93;;;;;;;0.26;100.00;90685.94;5111621;28;20394;-62
2022/01/08 02:52:07;;;;;;;48.78;9.27;;;;;;;0.15;100.00;90679.06;5111717;28;20574;-62
2022/01/08 02:54:33;;;;;;;89.70;12.05;;;;;;;0.11;100.00;90675.38;5111723;28;20477;-62
2022/01/08 02:56:59;;;;;;;54.97;8.40;;;;;;;0.02;100.00;90676.91;5111714;28;20106;-62
2022/01/08 02:59:25;;;;;;;56.50;9.43;;;;;;;-0.03;100.00;90678.44;5111626;28;20545;-62
2022/01/08 03:01:52;;;;;;;188.23;15.40;;;;;;;0.08;100.00;90681.13;5111493;28;20523;-62
2022/01/08 03:04:18;;;;;;;100.67;12.83;;;;;;;0.11;100.00;90670.16;5250327;22;20320;-76
2022/01/08 03:06:44;;;;;;;67.85;11.00;;;;;;;0.09;100.00;90683.50;5030428;28;20065;-66
2022/01/08 03:09:09;;;;;;;100.43;12.90;;;;;;;0.08;100.00;90675.91;5031265;28;20515;-67
2022/01/08 03:11:35;;;;;;;78.93;11.43;;;;;;;0.07;100.00;90662.03;5031306;28;20026;-67
2022/01/08 03:14:01;;;;;;;85.68;11.95;;;;;;;0.19;100.00;90669.69;5031257;28;20487;-67
2022/01/08 03:16:26;;;;;;;69.75;11.80;;;;;;;0.28;100.00;90668.97;5030872;28;20411;-66
2022/01/08 03:18:52;;;;;;;84.13;14.93;;;;;;;0.29;100.00;90654.84;5031145;28;20033;-67
2022/01/08 03:21:20;;;;;;;64.80;11.25;;;;;;;0.25;100.00;90653.00;5013570;28;20061;-67
2022/01/08 03:24:00;;;;;;;108.65;13.23;;;;;;;0.30;100.00;90660.84;5030973;28;20057;-67
2022/01/08 03:26:28;;;;;;;62.20;12.95;;;;;;;0.40;100.00;90647.84;5030910;28;20022;-67
2022/01/08 03:28:55;;;;;;;51.53;11.55;;;;;;;0.45;100.00;90653.09;5031018;28;20033;-67
2022/01/08 03:31:22;;;;;;;55.25;11.50;;;;;;;0.26;100.00;90650.13;5031032;28;20029;-67
2022/01/08 03:33:48;;;;;;;90.97;17.98;;;;;;;0.27;100.00;90636.00;5031217;28;20486;-67
2022/01/08 03:36:15;;;;;;;77.43;13.43;;;;;;;0.50;100.00;90654.97;5030860;28;20030;-67
2022/01/08 03:38:41;;;;;;;94.25;15.55;;;;;;;0.54;100.00;90658.63;5030955;28;20029;-67
2022/01/08 03:41:07;;;;;;;90.38;12.05;;;;;;;0.57;100.00;90658.13;5030858;28;20013;-67
2022/01/08 03:43:32;;;;;;;59.22;11.45;;;;;;;0.55;100.00;90654.97;5030933;28;20110;-66
2022/01/08 03:46:00;;;;;;;83.15;11.55;;;;;;;0.56;100.00;90644.25;5030816;28;20029;-66
2022/01/08 03:48:32;;;;;;;69.25;12.63;;;;;;;0.56;100.00;90644.25;5030688;28;20129;-66
2022/01/08 03:50:58;;;;;;;49.90;12.52;;;;;;;0.55;100.00;90647.91;5030974;28;20149;-66
2022/01/08 03:53:25;;;;;;;86.55;16.60;;;;;;;0.54;100.00;90642.94;5031641;28;20033;-66
2022/01/08 03:55:52;;;;;;;91.60;27.90;;;;;;;0.55;100.00;90653.16;5034428;28;20518;-66
2022/01/08 03:58:18;;;;;;;67.28;15.63;;;;;;;0.50;100.00;90649.72;5034444;28;20029;-66
2022/01/08 04:00:45;;;;;;;78.40;14.98;;;;;;;0.57;100.00;90647.66;5034698;28;20033;-66
2022/01/08 04:03:10;;;;;;;165.68;17.38;;;;;;;0.47;100.00;90650.22;5034503;28;20034;-66
2022/01/08 04:05:36;;;;;;;81.10;12.75;;;;;;;0.28;100.00;90642.00;5034192;28;20041;-66
2022/01/08 04:08:01;;;;;;;80.15;13.73;;;;;;;0.36;100.00;90652.00;5034400;28;20025;-66
2022/01/08 04:10:27;;;;;;;85.30;13.27;;;;;;;0.19;100.00;90639.09;5034326;28;20040;-66
2022/01/08 04:12:56;;;;;;;73.43;11.27;;;;;;;0.19;100.00;90639.09;5034194;28;20033;-65
2022/01/08 04:17:50;;;;;;;69.25;10.98;;;;;;;0.13;100.00;90637.47;5034412;28;20124;-65
2022/01/08 04:20:16;;;;;;;127.57;15.98;;;;;;;0.14;100.00;90635.66;5034320;28;20036;-66
2022/01/08 04:22:44;;;;;;;88.63;13.75;;;;;;;0.28;100.00;90637.56;5034112;28;20075;-66
2022/01/08 04:25:10;;;;;;;75.75;13.02;;;;;;;0.36;100.00;90644.16;5034241;28;20029;-66
2022/01/08 04:27:36;;;;;;;123.43;15.00;;;;;;;0.20;100.00;90632.03;5034002;28;20124;-66
2022/01/08 04:30:02;;;;;;;81.70;11.43;;;;;;;0.16;100.00;90637.00;5033761;28;20159;-66
2022/01/08 04:32:27;;;;;;;70.60;13.35;;;;;;;0.21;100.00;90637.03;5034057;28;20032;-66
2022/01/08 04:34:53;;;;;;;88.68;17.40;;;;;;;0.25;100.00;90630.22;5033838;28;20037;-66
2022/01/08 04:37:19;;;;;;;119.70;15.98;;;;;;;0.16;100.00;90633.56;5033845;28;20502;-66
2022/01/08 04:39:45;;;;;;;81.65;13.35;;;;;;;0.18;100.00;90637.53;5033966;28;20033;-66
2022/01/08 04:42:10;;;;;;;81.65;15.40;;;;;;;0.26;100.00;90638.88;5033715;28;20411;-66
2022/01/08 04:44:36;;;;;;;114.82;14.98;;;;;;;0.24;100.00;90639.13;5033593;28;20112;-66
2022/01/08 04:47:02;;;;;;;78.20;15.18;;;;;;;0.23;100.00;90631.53;5033639;28;20025;-66
2022/01/08 04:49:27;;;;;;;76.22;12.98;;;;;;;0.20;100.00;90630.22;5033581;28;20597;-66
2022/01/08 04:51:54;;;;;;;100.15;16.65;;;;;;;0.26;100.00;90631.00;5033499;28;20040;-66
2022/01/08 04:54:20;;;;;;;93.63;20.92;;;;;;;0.20;100.00;90632.84;5033374;28;20050;-66
2022/01/08 04:56:45;;;;;;;143.45;29.23;;;;;;;0.18;100.00;90645.38;5033475;28;20449;-66
2022/01/08 04:59:11;;;;;;;126.45;17.48;;;;;;;0.30;100.00;90642.53;5033443;28;20029;-66
2022/01/08 05:01:36;;;;;;;90.63;15.55;;;;;;;0.24;100.00;90639.13;5033433;28;20025;-66
2022/01/08 05:04:02;;;;;;;119.05;17.05;;;;;;;0.26;100.00;90633.63;5032859;28;20038;-66
2022/01/08 05:06:28;;;;;;;51.83;12.10;;;;;;;0.25;100.00;90643.31;5033013;28;20053;-66
2022/01/08 05:08:53;;;;;;;75.38;15.82;;;;;;;0.24;100.00;90638.34;5033442;28;20513;-66
2022/01/08 05:11:18;;;;;;;76.10;15.63;;;;;;;0.29;100.00;90631.28;5033123;28;20053;-66
2022/01/08 05:13:45;;;;;;;80.78;15.43;;;;;;;0.32;100.00;90635.25;5033169;28;20030;-66
2022/01/08 05:16:11;;;;;;;119.45;18.35;;;;;;;0.41;100.00;90631.09;5032889;28;20488;-66
2022/01/08 05:18:36;;;;;;;76.95;15.02;;;;;;;0.33;100.00;90628.19;5033066;28;20056;-66
2022/01/08 05:21:38;;;;;;;54.10;16.95;;;;;;;0.48;100.00;90623.81;5033052;28;20041;-66
2022/01/08 05:23:55;;;;;;;53.90;15.30;;;;;;;0.50;100.00;90626.97;5029734;28;20049;-66
2022/01/08 05:26:22;;;;;;;46.80;15.52;;;;;;;0.41;100.00;90619.84;5032794;28;20084;-66
2022/01/08 05:28:47;;;;;;;51.70;18.67;;;;;;;0.49;100.00;90630.63;5033141;28;20403;-66
2022/01/08 05:31:20;;;;;;;46.50;14.93;;;;;;;0.50;100.00;90628.78;5032785;28;20026;-66
2022/01/08 05:33:45;;;;;;;38.88;14.90;;;;;;;0.64;100.00;90624.66;5032912;28;20124;-64
2022/01/08 05:36:11;;;;;;;38.05;15.02;;;;;;;0.68;100.00;90623.09;5032436;28;20419;-66
2022/01/08 05:38:36;;;;;;;34.10;11.98;;;;;;;0.59;100.00;90622.00;5032681;28;20111;-66
2022/01/08 05:41:02;;;;;;;38.92;14.57;;;;;;;0.51;100.00;90619.91;5032642;28;20029;-66
2022/01/08 05:43:28;;;;;;;30.70;13.23;;;;;;;0.46;100.00;90618.03;5032580;28;20036;-66
2022/01/08 05:45:56;;;;;;;35.72;14.13;;;;;;;0.43;100.00;90618.53;5032388;28;20037;-66
2022/01/08 05:48:22;;;;;;;40.63;12.70;;;;;;;0.41;100.00;90614.63;5030426;28;20434;-66
2022/01/08 05:50:49;;;;;;;32.88;11.55;;;;;;;0.36;100.00;90604.91;5032302;28;20031;-66
2022/01/08 05:53:16;;;;;;;32.30;12.75;;;;;;;0.39;100.00;90619.31;5031958;28;20052;-68
2022/01/08 05:55:42;;;;;;;36.80;13.88;;;;;;;0.36;100.00;90617.22;5031396;28;20079;-67
2022/01/08 05:58:08;;;;;;;32.33;13.60;;;;;;;0.37;100.00;90613.56;5031469;28;20041;-67
2022/01/08 06:00:33;;;;;;;39.05;13.55;;;;;;;0.35;100.00;90613.81;5032212;28;20052;-67
2022/01/08 06:02:59;;;;;;;36.45;15.85;;;;;;;0.41;100.00;90612.78;5028857;28;20022;-67
2022/01/08 06:05:25;;;;;;;39.90;15.63;;;;;;;0.48;100.00;90617.78;5029941;28;20107;-67
2022/01/08 06:07:51;;;;;;;35.63;15.70;;;;;;;0.50;100.00;90608.66;5032372;28;20018;-67
2022/01/08 06:10:16;;;;;;;35.83;14.40;;;;;;;0.75;100.00;90631.50;5031539;28;20559;-66
2022/01/08 06:12:42;;;;;;;45.83;16.15;;;;;;;0.75;100.00;90615.00;5031837;28;20100;-65
2022/01/08 06:15:08;;;;;;;37.17;13.02;;;;;;;0.69;100.00;90616.81;5031664;28;20045;-65
2022/01/08 06:17:34;;;;;;;35.72;14.93;;;;;;;0.62;100.00;90615.47;5030463;28;20040;-66
2022/01/08 06:19:59;;;;;;;42.00;16.55;;;;;;;0.61;100.00;90619.91;5031739;28;20453;-66
2022/01/08 06:22:25;;;;;;;133.73;55.42;;;;;;;0.70;100.00;90618.41;5031692;28;20030;-67
2022/01/08 06:24:50;;;;;;;44.40;15.57;;;;;;;0.67;100.00;90624.16;5031362;28;20080;-67
2022/01/08 06:27:16;;;;;;;41.33;13.40;;;;;;;0.75;100.00;90612.38;5048535;28;20089;-68
2022/01/08 06:29:41;;;;;;;42.70;15.07;;;;;;;0.88;100.00;90619.75;5030766;28;20048;-67
2022/01/08 06:32:07;;;;;;;35.47;15.35;;;;;;;0.84;100.00;90616.09;5031190;28;20029;-68
2022/01/08 06:34:33;;;;;;;37.67;14.95;;;;;;;0.85;100.00;90621.06;5031419;28;20124;-68
2022/01/08 06:36:58;;;;;;;39.75;18.98;;;;;;;0.93;100.00;90617.16;5030701;28;20021;-69
2022/01/08 06:39:24;;;;;;;30.67;14.52;;;;;;;1.05;100.00;90620.31;5031135;28;20041;-69
2022/01/08 06:41:49;;;;;;;31.90;16.50;;;;;;;1.00;100.00;90622.16;5031414;28;20395;-67
2022/01/08 06:44:15;;;;;;;32.90;15.93;;;;;;;1.02;100.00;90620.06;5031077;28;20033;-67
2022/01/08 06:46:40;;;;;;;24.65;12.77;;;;;;;0.96;100.00;90611.41;5030893;28;20045;-67
2022/01/08 06:49:07;;;;;;;26.50;13.05;;;;;;;0.95;100.00;90611.66;5031205;28;20037;-68
2022/01/08 06:51:33;;;;;;;24.90;11.82;;;;;;;0.83;100.00;90607.44;5031322;28;20026;-68
2022/01/08 06:53:58;;;;;;;28.95;13.23;;;;;;;0.91;100.00;90598.28;5030775;28;20033;-68
2022/01/08 06:56:24;;;;;;;29.02;14.25;;;;;;;0.99;100.00;90600.41;5031080;28;20036;-68
2022/01/08 06:58:49;;;;;;;28.40;14.35;;;;;;;1.20;100.00;90601.22;5031155;28;20036;-67
2022/01/08 07:01:15;;;;;;;28.35;14.45;;;;;;;1.14;100.00;90615.38;5030677;28;20052;-67
2022/01/08 07:03:41;;;;;;;33.20;14.05;;;;;;;0.98;100.00;90606.69;5031127;28;20402;-67
2022/01/08 07:06:06;;;;;;;18.73;10.63;;;;;;;0.96;100.00;90610.63;5030906;28;20045;-67
2022/01/08 07:08:32;;;;;;;22.08;10.70;;;;;;;0.99;100.00;90612.72;5030421;28;20033;-68
2022/01/08 07:10:58;;;;;;;22.52;11.68;;;;;;;1.03;100.00;90619.78;5030858;28;20535;-68
2022/01/08 07:13:23;;;;;;;9.40;4.57;;;;;;;0.89;100.00;90616.88;5031024;28;20474;-67
2022/01/08 07:15:49;;;;;;;9.55;5.50;;;;;;;0.82;100.00;90610.31;5030440;28;20060;-67
2022/01/08 07:18:14;;;;;;;9.80;5.03;;;;;;;0.81;100.00;90604.31;5030959;28;20029;-66
2022/01/08 07:20:40;;;;;;;12.30;7.68;;;;;;;0.93;100.00;90611.13;5030436;28;20018;-67
2022/01/08 07:23:05;;;;;;;15.02;8.52;;;;;;;0.99;100.00;90610.09;5030721;28;20056;-67
2022/01/08 07:25:31;;;;;;;10.35;6.95;;;;;;;0.95;100.00;90603.78;5030452;28;20087;-67
2022/01/08 07:27:57;;;;;;;9.45;6.00;;;;;;;0.87;100.00;90603.25;5032803;28;20048;-67
2022/01/08 07:30:22;;;;;;;14.15;8.52;;;;;;;0.99;100.00;90603.03;5034809;28;20507;-67
2022/01/08 07:32:50;;;;;;;9.93;5.88;;;;;;;1.17;100.00;90602.53;5034009;28;20101;-67
2022/01/08 07:35:21;;;;;;;7.43;4.10;;;;;;;1.20;100.00;90593.38;5034611;28;20090;-64
2022/01/08 07:37:48;;;;;;;7.68;4.80;;;;;;;1.10;100.00;90599.38;5034591;28;20496;-67
2022/01/08 07:40:14;;;;;;;8.15;5.28;;;;;;;1.05;100.00;90595.97;5034509;28;20029;-66
2022/01/08 07:42:40;;;;;;;10.85;5.93;;;;;;;1.08;100.00;90598.06;5034744;28;20083;-67
2022/01/08 07:45:08;;;;;;;8.63;5.18;;;;;;;1.02;100.00;90597.28;5034248;28;20036;-67
2022/01/08 07:47:34;;;;;;;9.32;5.88;;;;;;;1.02;100.00;90599.88;5037897;28;20038;-67
2022/01/08 07:50:00;;;;;;;14.45;6.93;;;;;;;1.14;100.00;90597.03;5049785;28;20443;-67
2022/01/08 07:52:25;;;;;;;19.67;11.52;;;;;;;1.14;100.00;90592.59;5034372;28;20029;-67
2022/01/08 07:54:51;;;;;;;11.93;6.43;;;;;;;1.25;100.00;90595.97;5033478;28;20017;-68
2022/01/08 07:57:17;;;;;;;10.63;5.82;;;;;;;1.09;100.00;90602.25;5035559;28;20468;-68
2022/01/08 07:59:42;;;;;;;9.63;4.72;;;;;;;1.13;100.00;90591.00;5034101;28;20032;-67
2022/01/08 08:02:11;;;;;;;6.93;4.10;;;;;;;1.13;100.00;90587.59;5033750;28;20120;-67
2022/01/08 08:04:37;;;;;;;10.35;6.22;;;;;;;1.29;100.00;90589.19;5033855;28;20053;-67
2022/01/08 08:07:03;;;;;;;7.85;4.90;;;;;;;1.32;100.00;90586.06;5037268;28;21111;-69
2022/01/08 08:09:29;;;;;;;12.73;6.80;;;;;;;1.38;100.00;90579.75;5035863;28;20116;-68
2022/01/08 08:11:54;;;;;;;18.20;9.02;;;;;;;1.31;100.00;90578.44;5033819;28;20112;-68
2022/01/08 08:14:20;;;;;;;9.60;6.30;;;;;;;1.29;100.00;90576.09;5044505;28;20086;-68
2022/01/08 08:16:45;;;;;;;22.08;12.27;;;;;;;1.29;100.00;90573.47;5052274;28;20512;-67
2022/01/08 08:19:11;;;;;;;8.15;5.35;;;;;;;1.42;100.00;90569.53;5053722;28;20040;-67
2022/01/08 08:21:37;;;;;;;10.52;5.97;;;;;;;1.32;100.00;90570.34;5053430;28;20029;-67
2022/01/08 08:24:05;;;;;;;26.23;13.80;;;;;;;1.36;100.00;90584.47;5052508;28;20032;-68
2022/01/08 08:26:35;;;;;;;16.85;9.18;;;;;;;1.38;100.00;90581.59;5033210;28;20104;-68
2022/01/08 08:29:00;;;;;;;15.20;8.50;;;;;;;1.55;100.00;90576.88;5033443;28;20029;-68
2022/01/08 08:31:26;;;;;;;9.93;6.65;;;;;;;1.42;100.00;90570.34;5032905;28;20028;-68
2022/01/08 08:33:51;;;;;;;18.08;9.38;;;;;;;1.39;100.00;90573.47;5032738;28;20380;-68
2022/01/08 08:36:17;;;;;;;24.85;11.05;;;;;;;1.43;100.00;90566.66;5032979;28;20063;-65
2022/01/08 08:38:43;;;;;;;21.60;10.88;;;;;;;1.67;100.00;90568.75;5031898;28;20031;-66
2022/01/08 08:41:10;;;;;;;22.63;11.18;;;;;;;1.62;100.00;90574.00;5032588;28;20065;-65
2022/01/08 08:43:36;;;;;;;14.02;7.25;;;;;;;1.67;100.00;90569.53;5034426;28;20099;-66
2022/01/08 08:46:02;;;;;;;14.85;7.45;;;;;;;1.64;100.00;90564.03;5032239;28;20033;-66
2022/01/08 08:48:28;;;;;;;17.02;9.70;;;;;;;1.69;100.00;90564.03;5034069;28;20041;-66
2022/01/08 08:50:53;;;;;;;11.50;7.13;;;;;;;1.69;100.00;90556.94;5032406;28;20053;-66
2022/01/08 08:53:19;;;;;;;17.83;10.20;;;;;;;1.77;100.00;90558.25;5032210;28;20037;-65
2022/01/08 08:55:45;;;;;;;21.42;11.82;;;;;;;1.86;100.00;90546.16;5032461;28;20025;-64
2022/01/08 08:58:10;;;;;;;22.25;13.02;;;;;;;1.88;100.00;90554.56;5032369;28;20040;-65
2022/01/08 09:00:36;;;;;;;17.70;10.05;;;;;;;1.78;100.00;90552.75;5032348;28;20112;-64
2022/01/08 09:03:01;;;;;;;9.27;6.30;;;;;;;1.59;100.00;90554.34;5033080;28;20029;-65
2022/01/08 09:05:27;;;;;;;22.30;11.25;;;;;;;1.37;100.00;90549.34;5026894;28;20054;-64
2022/01/08 09:07:53;;;;;;;27.17;15.73;;;;;;;1.48;100.00;90550.94;5041394;28;20383;-64
2022/01/08 09:10:25;;;;;;;10.27;5.95;;;;;;;1.53;100.00;90544.13;5052641;28;20091;-65
2022/01/08 09:12:51;;;;;;;15.05;7.93;;;;;;;1.56;100.00;90546.97;5052331;28;20475;-66
2022/01/08 09:15:20;;;;;;;12.40;7.32;;;;;;;1.54;100.00;90530.75;5051672;28;20037;-66
2022/01/08 09:17:47;;;;;;;18.92;10.93;;;;;;;1.45;100.00;90543.59;5048132;28;20024;-66
2022/01/08 09:20:12;;;;;;;12.80;7.90;;;;;;;1.44;100.00;90554.34;5032002;28;20519;-65
2022/01/08 09:22:38;;;;;;;19.10;8.65;;;;;;;1.50;100.00;90543.59;5032134;28;20048;-64
2022/01/08 09:25:04;;;;;;;13.85;5.40;;;;;;;1.30;100.00;90537.56;5031601;28;20046;-65
2022/01/08 09:27:30;;;;;;;18.63;7.05;;;;;;;1.53;100.00;90537.03;5031759;28;20029;-66
2022/01/08 09:29:56;;;;;;;21.17;10.48;;;;;;;1.48;100.00;90529.97;5031233;28;20483;-66
2022/01/08 09:32:23;;;;;;;17.95;7.25;;;;;;;1.38;100.00;90527.34;5031617;28;20061;-65
2022/01/08 09:34:50;;;;;;;21.83;10.82;;;;;;;1.38;100.00;90519.47;5032492;28;20064;-66
2022/01/08 09:37:17;;;;;;;14.57;7.60;;;;;;;1.43;100.00;90511.63;5031645;28;20029;-64
2022/01/08 09:39:42;;;;;;;21.73;8.35;;;;;;;1.50;100.00;90514.75;5032344;28;20021;-65
2022/01/08 09:42:09;;;;;;;22.50;11.90;;;;;;;1.40;100.00;90506.13;5031498;28;20121;-65
2022/01/08 09:44:37;;;;;;;23.25;9.93;;;;;;;1.42;100.00;90507.44;5031377;28;20485;-65
2022/01/08 09:47:04;;;;;;;10.57;6.97;;;;;;;1.41;100.00;90503.22;5032047;28;20148;-65
2022/01/08 09:49:30;;;;;;;20.67;8.65;;;;;;;1.42;100.00;90507.44;5029495;28;20026;-64
2022/01/08 09:51:56;;;;;;;20.15;9.73;;;;;;;1.47;100.00;90504.03;5030250;28;20105;-64
2022/01/08 09:54:21;;;;;;;17.73;7.95;;;;;;;1.48;100.00;90493.28;5031509;28;20120;-64
2022/01/08 09:56:47;;;;;;;18.83;8.38;;;;;;;1.37;100.00;90501.41;5033966;28;20024;-64
2022/01/08 09:59:13;;;;;;;12.55;7.30;;;;;;;1.33;100.00;90482.81;5030842;28;20083;-67
2022/01/08 10:01:39;;;;;;;9.48;5.72;;;;;;;1.29;100.00;90489.63;5037987;28;20488;-64
2022/01/08 10:04:05;;;;;;;16.42;8.70;;;;;;;1.55;100.00;90487.75;5031436;28;20041;-64
2022/01/08 10:06:35;;;;;;;13.45;6.60;;;;;;;1.49;100.00;90489.59;5033080;28;20135;-64
2022/01/08 10:09:05;;;;;;;11.70;5.85;;;;;;;1.47;100.00;90483.84;5036639;28;20023;-65
2022/01/08 10:11:31;;;;;;;17.73;8.45;;;;;;;1.58;100.00;90483.81;5031248;28;20061;-65
2022/01/08 10:14:05;;;;;;;21.40;10.73;;;;;;;1.49;100.00;90484.34;5049079;28;20028;-66
2022/01/08 10:19:24;;;;;;;11.23;5.55;;;;;;;1.41;100.00;90471.00;5031314;28;20426;-65
2022/01/08 10:21:54;;;;;;;17.50;8.60;;;;;;;1.52;100.00;90477.00;5030861;28;20030;-66
2022/01/08 10:24:26;;;;;;;14.93;6.80;;;;;;;1.61;100.00;90470.97;5031208;28;20037;-66
2022/01/08 10:27:01;;;;;;;17.42;6.10;;;;;;;1.50;100.00;90469.41;5030999;28;20036;-65
2022/01/08 10:29:26;;;;;;;17.38;8.85;;;;;;;1.81;100.00;90480.63;5030310;28;20483;-67
2022/01/08 10:31:53;;;;;;;14.15;6.45;;;;;;;1.62;100.00;90469.94;5047836;28;20018;-67
2022/01/08 10:34:24;;;;;;;21.67;9.32;;;;;;;1.59;100.00;90462.59;5032688;28;20415;-66
2022/01/08 10:36:55;;;;;;;19.92;8.77;;;;;;;1.72;100.00;90466.47;5034932;28;20104;-66
2022/01/08 10:39:31;;;;;;;28.65;8.73;;;;;;;1.45;100.00;90456.34;5029969;28;20040;-66
2022/01/08 10:41:59;;;;;;;28.08;7.40;;;;;;;1.55;100.00;90451.06;5031221;28;20109;-66
2022/01/08 10:44:27;;;;;;;28.42;9.60;;;;;;;1.40;100.00;90451.88;5030396;28;20044;-66
2022/01/08 10:46:59;;;;;;;28.70;10.52;;;;;;;1.58;100.00;90444.47;5030885;28;20037;-65
2022/01/08 10:49:42;;;;;;;21.80;8.18;;;;;;;1.57;100.00;90437.69;5030720;28;20037;-66
2022/01/08 10:52:10;;;;;;;29.10;7.03;;;;;;;1.61;100.00;90438.72;5030935;28;20411;-66
2022/01/08 10:54:40;;;;;;;32.10;8.82;;;;;;;1.39;100.00;90442.44;5030754;28;20037;-65
2022/01/08 10:57:08;;;;;;;21.08;8.70;;;;;;;1.27;100.00;90421.00;5030863;28;20029;-67
2022/01/08 10:59:35;;;;;;;18.23;5.90;;;;;;;1.35;100.00;90430.91;5029968;28;20049;-66
2022/01/08 11:02:06;;;;;;;18.92;6.68;;;;;;;1.21;100.00;90414.19;5030455;28;20032;-66
2022/01/08 11:04:52;;;;;;;24.15;11.45;;;;;;;1.24;100.00;90425.94;5030427;28;20030;-65
2022/01/08 11:07:20;;;;;;;43.10;11.63;;;;;;;1.47;100.00;90428.81;5030571;28;20037;-66
2022/01/08 11:09:48;;;;;;;19.20;10.20;;;;;;;1.23;100.00;90409.44;5030622;28;20032;-65
2022/01/08 11:12:19;;;;;;;31.60;8.18;;;;;;;1.22;100.00;90426.22;5030255;28;20022;-65
2022/01/08 11:17:24;;;;;;;35.47;8.90;;;;;;;1.25;100.00;90423.06;5030505;28;20103;-65
2022/01/08 11:19:57;;;;;;;25.73;8.48;;;;;;;1.28;100.00;90427.00;5030606;28;20037;-66
2022/01/08 11:22:25;;;;;;;19.02;8.80;;;;;;;1.32;100.00;90420.97;5030589;28;20053;-65
2022/01/08 11:24:58;;;;;;;43.22;11.65;;;;;;;1.31;100.00;90416.78;5030415;28;20050;-65
2022/01/08 11:27:28;;;;;;;64.35;12.85;;;;;;;1.27;100.00;90418.38;5030444;28;20499;-66
2022/01/08 11:30:10;;;;;;;16.25;8.18;;;;;;;1.41;100.00;90414.13;5030447;28;20069;-66
2022/01/08 11:32:37;;;;;;;30.67;10.73;;;;;;;1.41;100.00;90413.34;5029374;28;20030;-66
2022/01/08 11:35:05;;;;;;;23.17;10.73;;;;;;;1.61;100.00;90409.91;5029710;28;20050;-67
2022/01/08 11:37:32;;;;;;;27.27;10.23;;;;;;;1.62;100.00;90409.63;5030427;28;20025;-66
2022/01/08 11:40:03;;;;;;;34.92;11.25;;;;;;;1.54;100.00;90414.63;5030405;28;20037;-67
2022/01/08 11:42:31;;;;;;;50.38;15.13;;;;;;;1.53;100.00;90411.22;5030172;28;20026;-67